createdAt,value
2023-02-23T00:01:19.851Z,41.3
2023-02-23T00:03:21.693Z,45.1
2023-02-23T00:05:23.599Z,42.9
2023-02-23T00:07:25.513Z,42.8
2023-02-23T00:09:30.721Z,45.2
2023-02-23T00:11:32.686Z,41.9
2023-02-23T00:13:34.668Z,43.9
2023-02-23T00:17:38.589Z,41.4
2023-02-23T00:19:40.542Z,42.2
2023-02-23T00:23:47.713Z,45.4
2023-02-23T00:25:49.673Z,42.9
2023-02-23T00:30:20.466Z,43.5
2023-02-23T00:32:22.543Z,43.1
2023-02-23T00:34:24.352Z,40.4
2023-02-23T00:36:29.665Z,43.3
2023-02-23T00:38:31.552Z,41.2
2023-02-23T00:40:33.477Z,40.3
2023-02-23T00:42:35.496Z,38.8
2023-02-23T00:44:37.461Z,40.3
2023-02-23T00:46:39.416Z,39.3
2023-02-23T00:48:41.395Z,40.6
2023-02-23T00:50:46.602Z,41.5
2023-02-23T00:52:48.563Z,38.1
2023-02-23T00:54:50.505Z,36.8
2023-02-23T00:56:52.496Z,42.3
2023-02-23T00:58:54.453Z,39.5
2023-02-23T01:00:57.994Z,35.7
2023-02-23T01:02:59.885Z,38
2023-02-23T01:07:07.063Z,36.7
2023-02-23T01:17:16.871Z,35.4
2023-02-23T01:19:22.098Z,39.7
2023-02-23T01:24:28.611Z,33.2
2023-02-23T01:26:30.578Z,32.4
2023-02-23T01:28:32.546Z,32.3
2023-02-23T01:30:34.520Z,35.5
2023-02-23T01:32:39.770Z,34.1
2023-02-23T01:34:41.671Z,33.7
2023-02-23T01:36:43.639Z,36.3
2023-02-23T01:38:45.601Z,32
2023-02-23T01:40:47.566Z,34.5
2023-02-23T01:46:56.717Z,34.5
2023-02-23T01:48:58.649Z,35
2023-02-23T01:51:00.645Z,32.3
2023-02-23T01:53:02.590Z,32.3
2023-02-23T01:55:04.577Z,35
2023-02-23T01:57:06.508Z,32.9
2023-02-23T01:59:08.389Z,33.7
2023-02-23T02:01:13.621Z,32.4
2023-02-23T02:03:15.539Z,32.6
2023-02-23T02:05:17.543Z,31
2023-02-23T02:07:19.482Z,28.6
2023-02-23T02:09:21.440Z,28.8
2023-02-23T02:11:23.400Z,30
2023-02-23T02:13:25.387Z,29.2
2023-02-23T02:15:30.544Z,29.5
2023-02-23T02:17:32.554Z,28
2023-02-23T02:19:34.502Z,26.3
2023-02-23T02:20:37.086Z,28.8
2023-02-23T02:22:39.068Z,29.1
2023-02-23T02:24:41.065Z,29.3
2023-02-23T02:26:43.030Z,26.5
2023-02-23T02:28:48.205Z,33.2
2023-02-23T02:30:50.200Z,29.6
2023-02-23T02:32:52.133Z,31.4
2023-02-23T02:34:54.114Z,30.5
2023-02-23T02:36:56.115Z,28.8
2023-02-23T02:38:58.045Z,27.3
2023-02-23T02:41:00.003Z,28.3
2023-02-23T02:43:05.168Z,29.3
2023-02-23T02:45:07.170Z,29.2
2023-02-23T02:47:09.129Z,28.6
2023-02-23T02:49:11.095Z,25.8
2023-02-23T02:51:13.085Z,28.8
2023-02-23T02:53:15.017Z,27.8
2023-02-23T02:55:17.007Z,30.5
2023-02-23T02:57:22.194Z,29.7
2023-02-23T02:59:24.151Z,29.3
2023-02-23T03:01:26.262Z,30.5
2023-02-23T03:03:28.091Z,29.4
2023-02-23T03:05:30.051Z,27.3
2023-02-23T03:07:31.993Z,31.6
2023-02-23T03:09:33.980Z,27.2
2023-02-23T03:11:39.159Z,31.8
2023-02-23T03:13:41.116Z,27.8
2023-02-23T03:15:43.179Z,31
2023-02-23T03:18:47.651Z,29.9
2023-02-23T03:20:49.625Z,33.5
2023-02-23T03:22:51.577Z,30.8
2023-02-23T03:24:56.768Z,32.6
2023-02-23T03:26:58.759Z,30.4
2023-02-23T03:29:00.686Z,28.3
2023-02-23T03:31:02.665Z,31
2023-02-23T03:33:04.610Z,30.9
2023-02-23T03:35:06.573Z,31.2
2023-02-23T03:37:08.525Z,30.3
2023-02-23T03:39:13.733Z,34
2023-02-23T03:41:15.723Z,33.5
2023-02-23T03:43:17.642Z,32.7
2023-02-23T03:45:19.653Z,28.8
2023-02-23T03:47:21.523Z,28.4
2023-02-23T03:49:23.500Z,30.3
2023-02-23T03:51:25.462Z,32
2023-02-23T03:53:30.648Z,33.6
2023-02-23T03:55:32.617Z,31.3
2023-02-23T03:57:34.572Z,29.6
2023-02-23T03:59:36.528Z,31.7
2023-02-23T04:01:38.574Z,31.9
2023-02-23T04:03:40.600Z,31.1
2023-02-23T04:07:47.646Z,31.2
2023-02-23T04:09:49.568Z,32.1
2023-02-23T04:11:51.560Z,29.7
2023-02-23T04:14:20.380Z,37.6
2023-02-23T04:20:29.518Z,33.4
2023-02-23T04:24:33.373Z,33.1
2023-02-23T04:26:35.341Z,34
2023-02-23T04:28:37.291Z,34.6
2023-02-23T04:30:39.315Z,33.7
2023-02-23T04:32:41.305Z,32.8
2023-02-23T04:34:46.422Z,35
2023-02-23T04:36:48.363Z,31.7
2023-02-23T04:38:50.333Z,34.5
2023-02-23T04:40:52.308Z,32.5
2023-02-23T04:42:54.248Z,33.6
2023-02-23T04:44:56.192Z,33
2023-02-23T04:46:58.152Z,34
2023-02-23T04:49:03.348Z,35.5
2023-02-23T04:51:05.306Z,35.3
2023-02-23T04:53:07.274Z,34.9
2023-02-23T04:55:09.228Z,35.5
2023-02-23T04:57:11.210Z,33.1
2023-02-23T04:59:13.175Z,35
2023-02-23T05:01:15.129Z,34.5
2023-02-23T05:03:20.302Z,38.6
2023-02-23T05:05:22.244Z,36
2023-02-23T05:08:26.809Z,36.8
2023-02-23T05:10:28.783Z,36
2023-02-23T05:12:30.713Z,36.9
2023-02-23T05:22:43.708Z,35.8
2023-02-23T05:24:45.658Z,37.2
2023-02-23T05:26:47.606Z,39
2023-02-23T05:28:49.580Z,36.4
2023-02-23T05:30:54.861Z,40
2023-02-23T05:32:56.682Z,37.3
2023-02-23T05:34:58.652Z,36
2023-02-23T05:37:00.618Z,35.5
2023-02-23T05:39:02.572Z,33.1
2023-02-23T05:41:04.520Z,35.1
2023-02-23T05:43:06.479Z,33.9
2023-02-23T05:45:11.657Z,40
2023-02-23T05:47:13.620Z,37.5
2023-02-23T05:51:17.925Z,37
2023-02-23T05:53:19.488Z,36.5
2023-02-23T05:55:21.464Z,38.7
2023-02-23T05:59:28.572Z,37.6
2023-02-23T06:01:30.496Z,36.9
2023-02-23T06:04:35.074Z,35.7
2023-02-23T06:06:36.996Z,34.3
2023-02-23T06:08:38.983Z,33.6
2023-02-23T06:10:40.926Z,35.5
2023-02-23T06:12:46.079Z,37.1
2023-02-23T06:14:48.049Z,35.2
2023-02-23T06:16:50.030Z,35.3
2023-02-23T06:18:51.981Z,37.9
2023-02-23T06:20:53.930Z,33.9
2023-02-23T06:22:55.881Z,33.1
2023-02-23T06:24:57.829Z,32.1
2023-02-23T06:27:02.996Z,36.2
2023-02-23T06:29:04.857Z,35.5
2023-02-23T06:31:07.103Z,33.5
2023-02-23T06:33:08.765Z,34.7
2023-02-23T06:35:10.723Z,36.3
2023-02-23T06:37:12.653Z,35.4
2023-02-23T06:39:14.614Z,33.6
2023-02-23T06:41:20.162Z,35.7
2023-02-23T06:43:23.314Z,34.4
2023-02-23T06:45:23.710Z,33.5
2023-02-23T06:47:25.654Z,31.2
2023-02-23T06:49:27.616Z,33.8
2023-02-23T06:51:29.582Z,31.2
2023-02-23T06:53:33.099Z,32.2
2023-02-23T06:55:38.239Z,32
2023-02-23T07:02:46.706Z,37.4
2023-02-23T07:04:48.647Z,34.5
2023-02-23T07:06:50.596Z,35.1
2023-02-23T07:08:55.785Z,35.9
2023-02-23T07:10:57.745Z,32.4
2023-02-23T07:12:59.672Z,30.9
2023-02-23T07:17:03.581Z,31.2
2023-02-23T07:19:05.524Z,31.1
2023-02-23T07:21:07.503Z,29.8
2023-02-23T07:23:12.704Z,32
2023-02-23T07:27:16.631Z,28.5
2023-02-23T07:29:18.565Z,31.1
2023-02-23T07:31:20.783Z,32
2023-02-23T07:33:22.485Z,32.9
2023-02-23T07:35:24.421Z,33.5
2023-02-23T07:37:29.610Z,34.8
2023-02-23T07:39:31.578Z,29.9
2023-02-23T07:41:33.532Z,31.1
2023-02-23T07:43:35.479Z,30.7
2023-02-23T07:45:37.468Z,30.6
2023-02-23T07:47:39.406Z,29
2023-02-23T07:49:41.334Z,32.1
2023-02-23T07:51:46.515Z,30.9
2023-02-23T07:53:48.463Z,29.7
2023-02-23T07:55:50.431Z,31.7
2023-02-23T07:58:19.138Z,33.2
2023-02-23T08:00:21.056Z,29.6
2023-02-23T08:02:22.998Z,32.5
2023-02-23T08:04:28.233Z,33.8
2023-02-23T08:06:30.192Z,32.5
2023-02-23T08:08:32.128Z,28.4
2023-02-23T08:10:34.076Z,31.1
2023-02-23T08:12:36.035Z,31.5
2023-02-23T08:14:37.962Z,31
2023-02-23T08:16:40.011Z,29
2023-02-23T08:18:45.101Z,34.4
2023-02-23T08:20:46.967Z,29.9
2023-02-23T08:22:50.061Z,29.7
2023-02-23T08:24:50.887Z,30.3
2023-02-23T08:26:52.860Z,30.4
2023-02-23T08:30:56.874Z,30.2
2023-02-23T08:33:01.944Z,31.7
2023-02-23T08:37:05.860Z,29.3
2023-02-23T08:39:07.808Z,30.9
2023-02-23T08:41:09.748Z,29.6
2023-02-23T08:43:11.748Z,29.6
2023-02-23T08:45:13.643Z,34.2
2023-02-23T08:47:18.859Z,32.9
2023-02-23T08:49:20.789Z,33.7
2023-02-23T08:51:22.759Z,32.4
2023-02-23T08:52:25.352Z,31.6
2023-02-23T08:54:27.304Z,33
2023-02-23T08:56:29.277Z,30.2
2023-02-23T09:02:38.372Z,30.6
2023-02-23T09:06:42.304Z,31.6
2023-02-23T09:08:44.250Z,25.9
2023-02-23T09:10:46.217Z,30.2
2023-02-23T09:12:48.143Z,30
2023-02-23T09:14:53.333Z,31.2
2023-02-23T09:16:55.321Z,28.6
2023-02-23T09:18:57.277Z,28.3
2023-02-23T09:20:59.210Z,28.6
2023-02-23T09:23:01.173Z,30.4
2023-02-23T09:25:03.130Z,29.3
2023-02-23T09:27:05.098Z,27.4
2023-02-23T09:29:10.262Z,33.9
2023-02-23T09:31:12.339Z,32.3
2023-02-23T09:33:14.201Z,31
2023-02-23T09:35:16.144Z,27
2023-02-23T09:37:18.116Z,29.8
2023-02-23T09:39:29.147Z,30.2
2023-02-23T09:41:22.059Z,27.4
2023-02-23T09:43:27.209Z,28.5
2023-02-23T09:45:29.211Z,26.8
2023-02-23T09:47:31.233Z,29.3
2023-02-23T09:48:33.736Z,29.4
2023-02-23T09:50:35.717Z,27.8
2023-02-23T09:52:37.762Z,29
2023-02-23T09:54:39.648Z,31
2023-02-23T09:56:44.811Z,29.2
2023-02-23T09:58:46.776Z,29.9
2023-02-23T10:00:48.784Z,25.9
2023-02-23T10:02:50.719Z,26.1
2023-02-23T10:04:52.771Z,29.8
2023-02-23T10:08:56.670Z,28.5
2023-02-23T10:11:01.821Z,31.4
2023-02-23T10:13:03.804Z,28
2023-02-23T10:15:05.770Z,27.9
2023-02-23T10:17:07.756Z,27.5
2023-02-23T10:19:09.722Z,25.6
2023-02-23T10:21:11.682Z,24.4
2023-02-23T10:27:20.833Z,26.4
2023-02-23T10:29:22.807Z,26.2
2023-02-23T10:31:24.867Z,24.6
2023-02-23T10:33:26.937Z,27.2
2023-02-23T10:37:30.695Z,25.5
2023-02-23T10:41:37.732Z,24.8
2023-02-23T10:44:42.343Z,22.7
2023-02-23T10:46:44.304Z,25
2023-02-23T10:48:46.324Z,25.9
2023-02-23T10:52:53.437Z,27.6
2023-02-23T10:56:57.373Z,24.1
2023-02-23T10:58:59.376Z,24.4
2023-02-23T11:01:01.329Z,22.8
2023-02-23T11:03:03.361Z,24.2
2023-02-23T11:05:05.291Z,24.4
2023-02-23T11:07:10.367Z,23.2
2023-02-23T11:09:12.346Z,24.9
2023-02-23T11:11:14.661Z,21.3
2023-02-23T11:17:20.258Z,22.6
2023-02-23T11:19:22.236Z,23.5
2023-02-23T11:25:31.411Z,22.3
2023-02-23T11:27:33.394Z,23.5
2023-02-23T11:29:35.455Z,21.6
2023-02-23T11:31:37.468Z,22
2023-02-23T11:33:39.343Z,19.8
2023-02-23T11:35:44.542Z,19.9
2023-02-23T11:37:46.513Z,26.5
2023-02-23T11:39:48.472Z,23
2023-02-23T11:42:17.172Z,24.1
2023-02-23T11:46:21.478Z,21
2023-02-23T11:52:30.268Z,22.4
2023-02-23T11:54:32.251Z,20.8
2023-02-23T11:56:34.195Z,20.3
2023-02-23T11:58:36.203Z,19.4
2023-02-23T12:10:51.290Z,18.9
2023-02-23T12:12:53.181Z,19.9
2023-02-23T12:17:00.396Z,19.1
2023-02-23T12:19:02.323Z,18.7
2023-02-23T12:21:04.266Z,17
2023-02-23T12:23:06.244Z,17.8
2023-02-23T12:27:10.193Z,17.7
2023-02-23T12:29:12.130Z,17.6
2023-02-23T12:31:17.351Z,19.8
2023-02-23T12:35:21.263Z,17.6
2023-02-23T12:36:23.858Z,19.3
2023-02-23T12:48:40.389Z,21.9
2023-02-23T12:50:42.349Z,20.3
2023-02-23T12:52:44.337Z,18.8
2023-02-23T12:54:46.303Z,34.6
2023-02-23T12:58:53.480Z,20.7
2023-02-23T13:13:10.478Z,18.2
2023-02-23T13:15:12.436Z,17.3
2023-02-23T13:17:14.373Z,14.1
2023-02-23T13:19:16.372Z,15.4
2023-02-23T13:21:18.668Z,18.6
2023-02-23T13:23:20.285Z,16.1
2023-02-23T13:25:22.279Z,15.2
2023-02-23T13:27:27.484Z,15.1
2023-02-23T13:29:29.385Z,17.5
2023-02-23T13:31:31.434Z,16.3
2023-02-23T13:36:37.893Z,18.9
2023-02-23T13:38:39.846Z,21.9
2023-02-23T13:40:45.092Z,18.5
2023-02-23T13:44:48.969Z,18.4
2023-02-23T13:46:50.940Z,16.3
2023-02-23T13:48:57.448Z,28.7
2023-02-23T13:50:54.833Z,21
2023-02-23T13:52:56.823Z,15.7
2023-02-23T13:55:01.997Z,17.7
2023-02-23T13:57:03.974Z,18.1
2023-02-23T13:59:05.948Z,17.1
2023-02-23T14:01:08.001Z,15.5
2023-02-23T14:03:09.939Z,16.2
2023-02-23T14:05:11.747Z,14.8
2023-02-23T14:07:13.689Z,12.9
2023-02-23T14:09:18.870Z,15.9
2023-02-23T14:11:20.831Z,16.4
2023-02-23T14:13:22.826Z,16.3
2023-02-23T14:15:24.732Z,15.1
2023-02-23T14:17:26.687Z,13.6
2023-02-23T14:19:28.659Z,15.7
2023-02-23T14:21:30.508Z,15.9
2023-02-23T14:23:35.749Z,18.7
2023-02-23T14:25:37.711Z,15.2
2023-02-23T14:27:41.869Z,20.3
2023-02-23T14:28:42.329Z,20.6
2023-02-23T14:30:44.364Z,18.1
2023-02-23T14:32:46.250Z,15.2
2023-02-23T14:34:48.197Z,15.1
2023-02-23T14:36:53.433Z,14.5
2023-02-23T14:38:55.369Z,14.1
2023-02-23T14:40:57.429Z,17.2
2023-02-23T14:42:59.349Z,13.1
2023-02-23T14:45:01.356Z,13.6
2023-02-23T14:47:03.322Z,14.4
2023-02-23T14:49:05.262Z,16.2
2023-02-23T14:51:16.525Z,13.6
2023-02-23T14:55:14.393Z,14.1
2023-02-23T14:57:16.447Z,13.4
2023-02-23T14:59:18.355Z,11.4
2023-02-23T15:01:20.654Z,12.3
2023-02-23T15:03:22.371Z,14.4
2023-02-23T15:05:27.532Z,14.2
2023-02-23T15:07:29.504Z,13.1
2023-02-23T15:09:31.470Z,12.9
2023-02-23T15:11:33.416Z,12
2023-02-23T15:15:37.392Z,12.4
2023-02-23T15:17:39.322Z,11.1
2023-02-23T15:19:44.555Z,13.4
2023-02-23T15:21:46.509Z,15.2
2023-02-23T15:23:48.459Z,15
2023-02-23T15:26:24.150Z,12.3
2023-02-23T15:28:19.453Z,13.7
2023-02-23T15:30:21.231Z,12.3
2023-02-23T15:32:26.586Z,13.6
2023-02-23T15:34:28.455Z,18.9
2023-02-23T15:36:30.482Z,18.7
2023-02-23T15:38:42.790Z,15.4
2023-02-23T15:40:34.423Z,19.6
2023-02-23T15:42:36.423Z,15.8
2023-02-23T15:44:44.064Z,17
2023-02-23T15:46:43.624Z,18.6
2023-02-23T15:48:45.589Z,18.9
2023-02-23T15:50:47.541Z,16.6
2023-02-23T15:52:49.505Z,14.5
2023-02-23T15:54:51.475Z,19.9
2023-02-23T15:56:53.510Z,19
2023-02-23T15:58:57.256Z,18.2
2023-02-23T16:01:00.572Z,17.9
2023-02-23T16:03:02.621Z,18.3
2023-02-23T16:05:04.530Z,18.7
2023-02-23T16:07:06.441Z,19.8
2023-02-23T16:09:08.410Z,19.8
2023-02-23T16:11:10.405Z,19.6
2023-02-23T16:13:12.393Z,22.3
2023-02-23T16:15:17.561Z,15
2023-02-23T16:17:19.568Z,8.2
2023-02-23T16:19:21.489Z,8.5
2023-02-23T16:22:26.070Z,5.6
2023-02-23T16:24:28.025Z,4.7
2023-02-23T16:26:29.973Z,40.5
2023-02-23T16:28:35.183Z,46.5
2023-02-23T16:30:37.137Z,35
2023-02-23T16:32:39.323Z,15.7
2023-02-23T16:34:41.102Z,4.6
2023-02-23T16:36:43.052Z,4.2
2023-02-23T16:38:45.009Z,4.4
2023-02-23T16:40:46.978Z,4.7
2023-02-23T16:42:53.986Z,3.3
2023-02-23T16:44:54.115Z,3.6
2023-02-23T16:46:56.048Z,3.7
2023-02-23T16:48:58.035Z,6.3
2023-02-23T16:51:00.354Z,3.1
2023-02-23T16:53:02.287Z,8.3
2023-02-23T16:55:04.226Z,3.7
2023-02-23T16:57:09.430Z,2.9
2023-02-23T16:59:11.355Z,4
2023-02-23T17:01:13.350Z,3.9
2023-02-23T17:05:17.274Z,3.6
2023-02-23T17:07:19.232Z,3.1
2023-02-23T17:09:21.174Z,5.8
2023-02-23T17:11:26.387Z,4.2
2023-02-23T17:15:30.275Z,6.1
2023-02-23T17:16:32.914Z,12.7
2023-02-23T17:18:35.021Z,4.6
2023-02-23T17:20:36.775Z,12.8
2023-02-23T17:22:38.706Z,8.8
2023-02-23T17:24:43.886Z,15.1
2023-02-23T17:26:45.842Z,19.9
2023-02-23T17:28:47.788Z,9
2023-02-23T17:30:49.805Z,5.3
2023-02-23T17:32:51.809Z,10.9
2023-02-23T17:34:53.655Z,9.9
2023-02-23T17:36:55.662Z,4.4
2023-02-23T17:39:00.826Z,9.4
2023-02-23T17:41:02.739Z,12.9
2023-02-23T17:43:04.717Z,14
2023-02-23T17:45:06.663Z,6.4
2023-02-23T17:47:08.589Z,5.6
2023-02-23T17:49:10.549Z,6.6
2023-02-23T17:51:12.490Z,4.3
2023-02-23T17:53:17.690Z,4.4
2023-02-23T17:55:19.634Z,4
2023-02-23T17:57:21.616Z,4.7
2023-02-23T17:59:23.529Z,5.5
2023-02-23T18:01:25.591Z,5.7
2023-02-23T18:03:27.460Z,3.8
2023-02-23T18:05:29.368Z,4.5
2023-02-23T18:07:34.534Z,5.3
2023-02-23T18:09:36.544Z,5.8
2023-02-23T18:11:38.434Z,4.3
2023-02-23T18:18:46.940Z,4.4
2023-02-23T18:20:52.103Z,3.6
2023-02-23T18:22:54.051Z,7.9
2023-02-23T18:24:57.324Z,5.8
2023-02-23T18:26:57.919Z,5.1
2023-02-23T18:28:59.881Z,5.1
2023-02-23T18:31:01.844Z,2.3
2023-02-23T18:35:10.512Z,3.1
2023-02-23T18:37:12.393Z,5.2
2023-02-23T18:39:14.348Z,3.3
2023-02-23T18:41:16.302Z,8
2023-02-23T18:43:18.247Z,6.4
2023-02-23T18:47:22.153Z,11.6
2023-02-23T18:49:27.322Z,5.4
2023-02-23T18:51:29.278Z,6.9
2023-02-23T18:53:31.232Z,3.9
2023-02-23T18:55:33.163Z,4
2023-02-23T18:57:35.115Z,4.5
2023-02-23T18:59:37.053Z,5.2
2023-02-23T19:01:38.983Z,6.8
2023-02-23T19:03:44.135Z,6.9
2023-02-23T19:05:46.088Z,8.4
2023-02-23T19:07:48.024Z,9.5
2023-02-23T19:10:16.852Z,9.2
2023-02-23T19:12:18.804Z,6.3
2023-02-23T19:14:22.135Z,4
2023-02-23T19:16:26.027Z,7.2
2023-02-23T19:18:27.858Z,6.3
2023-02-23T19:20:29.813Z,5.6
2023-02-23T19:22:31.746Z,4.6
2023-02-23T19:24:34.082Z,4.1
2023-02-23T19:26:35.628Z,5.2
2023-02-23T19:28:37.516Z,4.5
2023-02-23T19:30:42.685Z,4.4
2023-02-23T19:32:44.844Z,4.5
2023-02-23T19:34:46.616Z,5.7
2023-02-23T19:36:48.481Z,4.7
2023-02-23T19:38:50.425Z,3.3
2023-02-23T19:40:52.339Z,5.1
2023-02-23T19:42:54.279Z,5.1
2023-02-23T19:44:59.412Z,4.8
2023-02-23T19:47:01.329Z,5
2023-02-23T19:49:03.265Z,3.8
2023-02-23T19:51:05.180Z,4.6
2023-02-23T19:53:07.123Z,4.1
2023-02-23T19:55:09.027Z,5.2
2023-02-23T19:57:10.984Z,4.4
2023-02-23T19:59:16.111Z,4.5
2023-02-23T20:01:18.528Z,4.3
2023-02-23T20:03:19.948Z,5.2
2023-02-23T20:08:26.356Z,5.2
2023-02-23T20:10:28.273Z,5.2
2023-02-23T20:12:33.441Z,5.9
2023-02-23T20:14:35.324Z,6.3
2023-02-23T20:16:37.359Z,4.6
2023-02-23T20:18:39.141Z,5.5
2023-02-23T20:20:41.075Z,4.8
2023-02-23T20:22:42.978Z,6.5
2023-02-23T20:24:44.890Z,5.6
2023-02-23T20:26:50.025Z,6.5
2023-02-23T20:28:51.956Z,5.1
2023-02-23T20:30:53.931Z,5.7
2023-02-23T20:32:55.921Z,4.5
2023-02-23T20:34:57.708Z,4.7
2023-02-23T20:36:59.596Z,5.2
2023-02-23T20:39:01.764Z,5
2023-02-23T20:41:06.612Z,5.9
2023-02-23T20:43:08.533Z,4.5
2023-02-23T20:45:10.447Z,3.9
2023-02-23T20:47:12.349Z,4
2023-02-23T20:49:14.243Z,3.2
2023-02-23T20:51:16.171Z,4.7
2023-02-23T20:53:18.024Z,5.4
2023-02-23T20:57:25.078Z,4.6
2023-02-23T20:59:26.996Z,3.3
2023-02-23T21:00:29.550Z,3.9
2023-02-23T21:02:31.452Z,2.5
2023-02-23T21:04:33.348Z,3.3
2023-02-23T21:06:35.242Z,3
2023-02-23T21:08:40.373Z,3.4
2023-02-23T21:10:42.270Z,3.4
2023-02-23T21:12:44.166Z,3.5
2023-02-23T21:14:46.069Z,2.9
2023-02-23T21:16:47.971Z,3.8
2023-02-23T21:18:49.885Z,4.7
2023-02-23T21:20:51.761Z,4.8
2023-02-23T21:22:56.876Z,4.7
2023-02-23T21:24:58.794Z,4.2
2023-02-23T21:27:00.675Z,4.9
2023-02-23T21:29:02.532Z,3.3
2023-02-23T21:31:04.475Z,3.2
2023-02-23T21:33:06.512Z,3.1
2023-02-23T21:35:08.229Z,3.2
2023-02-23T21:37:13.339Z,3.8
2023-02-23T21:39:15.263Z,3.5
2023-02-23T21:43:19.026Z,4.2
2023-02-23T21:45:20.924Z,3.4
2023-02-23T21:47:22.807Z,3.7
2023-02-23T21:49:24.685Z,3.7
2023-02-23T21:51:29.839Z,4.9
2023-02-23T21:53:31.680Z,4.4
2023-02-23T21:55:33.575Z,5.1
2023-02-23T21:56:36.143Z,3.4
2023-02-23T21:58:38.018Z,4
2023-02-23T22:02:41.818Z,5.2
2023-02-23T22:04:46.848Z,5.3
2023-02-23T22:06:48.745Z,4.6
2023-02-23T22:08:50.642Z,4.5
2023-02-23T22:12:54.368Z,5.2
2023-02-23T22:14:56.292Z,3.6
2023-02-23T22:16:58.196Z,3.7
2023-02-23T22:19:03.358Z,4.2
2023-02-23T22:23:07.031Z,3.9
2023-02-23T22:27:10.789Z,4.5
2023-02-23T22:29:12.615Z,4.4
2023-02-23T22:31:14.669Z,5.7
2023-02-23T22:39:25.242Z,4.4
2023-02-23T22:41:27.104Z,4.1
2023-02-23T22:43:28.992Z,4.4
2023-02-23T22:45:30.855Z,3.7
2023-02-23T22:47:35.911Z,3.3
2023-02-23T22:49:37.818Z,2.8
2023-02-23T22:51:39.688Z,4.1
2023-02-23T22:56:10.438Z,2.6
2023-02-23T23:04:21.213Z,4.1
2023-02-23T23:06:23.044Z,3.2
2023-02-23T23:08:24.893Z,3.3
2023-02-23T23:10:26.759Z,4.3
2023-02-23T23:12:28.627Z,3.2
2023-02-23T23:16:35.657Z,3
2023-02-23T23:18:37.475Z,3.4
2023-02-23T23:20:39.407Z,2.9
2023-02-23T23:22:41.213Z,3.8
2023-02-23T23:24:43.087Z,3.2
2023-02-23T23:26:44.996Z,3.8
2023-02-23T23:28:50.103Z,3.1
2023-02-23T23:30:51.954Z,3.9
2023-02-23T23:32:53.957Z,3.4
2023-02-23T23:34:55.621Z,4.9
2023-02-23T23:36:57.504Z,4.6
2023-02-23T23:38:59.365Z,3.4
2023-02-23T23:41:01.243Z,4.7
2023-02-23T23:43:06.323Z,4.5
2023-02-23T23:45:08.161Z,4.6
2023-02-23T23:47:09.999Z,4.9
2023-02-23T23:50:14.425Z,3.4
2023-02-23T23:52:16.269Z,3.5
2023-02-23T23:56:23.206Z,4.9
